Fairbank, Arizona
Current Conditions -  °F | °C
As of 10:54 AM on Monday 20 Oct 2014 (Local Time) from KOLS Reporting Station
Clear Clear  
Wind Chill: 73°   Ceiling: Unl
Heat Index: 73°   Visibility: 10mi
Dew Point: 46°   Wind: 3mph
Humidity: 38%   Direction: NA
Pressure: 30.03"   Gusts: NA
Location:  31.4355°N, 110.967°W
Report Text: KOLS 201754Z AUTO VRB03KT 10SM CLR 23/08 A3003 RMK AO2 SLP118 T02280078 10228 20111 58003
Loading
Personal Weather Stations






























Interactive Weather Map
Tropical Storm Tracking
New forecast layout! Learn more

10-Day Weather Forecast

Advertisements
Track Severe Weather on mobile